DucheSS Of Scandinavia — OUZI2 — position and weather

sailwx.info

Track history (hours):
 
Tides and Currents Weather Stations Pressure Air Temp Water Temp Dewpoint Dewpoint Depression Visibility Wind Speed Wind Dir Waves Ship Positions

DucheSS Of Scandinavia

Operator: DFDS A/S

Last reported at 2015-Mar-31 20:24 UTC. Time now 2015-Apr-01 16:35 UTC.
Position N 59°06' E 010°14'.

Length 134 m; draft 5.2 m.

Type: Passenger vessel. MMSI: 219002929.

Date/timePositionNaut miles runAvg speedWind from/ knotsBaromVisibWave heightAir tempDewpointWater temp
2015-Mar-31 20:24N 59°06' E 010°14'0 0.1
2015-Mar-31 16:19N 59°06' E 010°14'1013.3
2015-Mar-31 15:33N 59°01' E 010°31'1615.9
2015-Mar-31 14:33N 58°59' E 011°01'5 5.4
2015-Mar-31 13:33N 58°56' E 011°10'1414.0
2015-Mar-31 12:33N 59°02' E 010°45'7 2.1
2015-Mar-31 09:06N 59°01' E 010°31'915.9
2015-Mar-31 08:33N 59°02' E 010°48'1310.0
2015-Mar-31 07:17N 58°56' E 011°10'1213.2
2015-Mar-31 06:25N 59°01' E 010°50'10 0.7
2015-Mar-30 15:32N 59°01' E 010°30'1615.8
2015-Mar-30 14:33N 58°59' E 011°00'7 3.4
2015-Mar-30 12:33N 59°02' E 010°48'8 2.4
2015-Mar-30 09:07N 59°00' E 010°32'915.4
2015-Mar-30 08:33N 59°02' E 010°48'0 0.2
2015-Mar-30 06:17N 59°02' E 010°47'9 0.6
2015-Mar-29 15:30N 59°01' E 010°30'1313.8
2015-Mar-29 14:34N 59°00' E 010°55'7 4.9
2015-Mar-29 13:12N 58°56' E 011°05'1115.4
2015-Mar-29 12:30N 59°02' E 010°47'9 2.6
2015-Mar-29 09:11N 59°00' E 010°31'914.7
2015-Mar-29 08:34N 59°02' E 010°49'4 2.1
2015-Mar-29 06:33N 59°00' E 010°56'15 1.0
2015-Mar-28 16:29N 59°01' E 010°28'1515.8
2015-Mar-28 15:33N 59°00' E 010°56'6 4.5
2015-Mar-28 14:10N 58°56' E 011°05'915.8
2015-Mar-28 13:33N 59°01' E 010°50'10 3.0
2015-Mar-28 10:10N 59°01' E 010°30'1015.6
2015-Mar-28 09:34N 59°01' E 010°49'1212.1
2015-Mar-28 08:33N 58°56' E 011°10'9 9.0
2015-Mar-28 07:34N 59°00' E 010°55'1717.0
2015-Mar-28 06:34N 59°01' E 010°22'6 0.5
2015-Mar-27 17:15N 59°06' E 010°14'1012.5
2015-Mar-27 16:29N 59°01' E 010°30'1414.6
2015-Mar-27 15:33N 59°00' E 010°56'6 4.6
2015-Mar-27 14:10N 58°56' E 011°06'1015.6
2015-Mar-27 13:34N 59°01' E 010°50'10 2.9
2015-Mar-27 10:09N 59°01' E 010°31'915.3
2015-Mar-27 09:33N 59°02' E 010°48'12 8.3
2015-Mar-27 08:05N 58°56' E 011°09'1015.1
2015-Mar-27 07:24N 59°01' E 010°51'11 0.7
2015-Mar-26 16:27N 59°01' E 010°31'1315.1
2015-Mar-26 15:33N 59°00' E 010°56'6 4.6
2015-Mar-26 14:16N 58°56' E 011°05'1116.2
2015-Mar-26 13:33N 59°02' E 010°46'9 2.7
2015-Mar-26 10:12N 59°01' E 010°28'1015.8
2015-Mar-26 09:34N 59°02' E 010°47'13 9.3
2015-Mar-26 08:10N 58°56' E 011°09'1114.6
2015-Mar-26 07:26N 59°01' E 010°51'1815.8
2015-Mar-26 06:17N 59°02' E 010°16'8 0.5
2015-Mar-25 16:17N 59°01' E 010°30'1317.2
2015-Mar-25 15:33N 59°00' E 010°55'7 5.4
2015-Mar-25 14:15N 58°56' E 011°06'1116.2
2015-Mar-25 13:33N 59°02' E 010°46'10 2.8
2015-Mar-25 10:11N 59°01' E 010°28'1016.6
2015-Mar-25 09:33N 59°02' E 010°48'3 1.6
2015-Mar-25 07:33N 59°01' E 010°54'12 0.8
2015-Mar-24 16:24N 59°01' E 010°31'1315.9
2015-Mar-24 15:33N 59°00' E 010°57'5 3.5
2015-Mar-24 14:09N 58°57' E 011°04'1016.3
2015-Mar-24 13:32N 59°02' E 010°47'8 2.4
2015-Mar-24 10:09N 59°00' E 010°31'914.9
2015-Mar-24 09:33N 59°02' E 010°48'12 8.4
2015-Mar-24 08:06N 58°56' E 011°09'814.5
2015-Mar-24 07:34N 59°00' E 010°57'1716.4
2015-Mar-24 06:32N 59°01' E 010°24'4 0.3
2015-Mar-23 16:31N 59°01' E 010°33'1313.4
2015-Mar-23 15:34N 59°00' E 010°58'5 4.2
2015-Mar-23 14:15N 58°56' E 011°05'1115.8
2015-Mar-23 13:34N 59°02' E 010°47'9 2.6
2015-Mar-23 10:16N 59°00' E 010°30'913.3
2015-Mar-23 09:33N 59°02' E 010°48'2 0.9
2015-Mar-23 07:26N 59°01' E 010°52'12 0.8
2015-Mar-22 16:33N 59°01' E 010°28'1514.7
2015-Mar-22 15:33N 59°00' E 010°56'6 4.4
2015-Mar-22 14:11N 58°56' E 011°06'1115.5
2015-Mar-22 13:29N 59°02' E 010°47'10 3.1
2015-Mar-22 10:20N 59°01' E 010°28'1114.9
2015-Mar-22 09:34N 59°01' E 010°50'2 0.7
2015-Mar-22 07:16N 59°02' E 010°47'  
Track history (hours):
 
Tides and Currents Weather Stations Pressure Air Temp Water Temp Dewpoint Dewpoint Depression Visibility Wind Speed Wind Dir Waves Ship Positions

DucheSS Of Scandinavia

Operator: DFDS A/S

Last reported at 2015-Mar-31 20:24 UTC. Time now 2015-Apr-01 16:35 UTC.
Position N 59°06' E 010°14'.

Length 134 m; draft 5.2 m.

Type: Passenger vessel. MMSI: 219002929.

Date/timePositionNaut miles runAvg speedWind from/ knotsBaromVisibWave heightAir tempDewpointWater temp
2015-Mar-31 20:24N 59°06' E 010°14'0 0.1
2015-Mar-31 16:19N 59°06' E 010°14'1013.3
2015-Mar-31 15:33N 59°01' E 010°31'1615.9
2015-Mar-31 14:33N 58°59' E 011°01'5 5.4
2015-Mar-31 13:33N 58°56' E 011°10'1414.0
2015-Mar-31 12:33N 59°02' E 010°45'7 2.1
2015-Mar-31 09:06N 59°01' E 010°31'915.9
2015-Mar-31 08:33N 59°02' E 010°48'1310.0
2015-Mar-31 07:17N 58°56' E 011°10'1213.2
2015-Mar-31 06:25N 59°01' E 010°50'10 0.7
2015-Mar-30 15:32N 59°01' E 010°30'1615.8
2015-Mar-30 14:33N 58°59' E 011°00'7 3.4
2015-Mar-30 12:33N 59°02' E 010°48'8 2.4
2015-Mar-30 09:07N 59°00' E 010°32'915.4
2015-Mar-30 08:33N 59°02' E 010°48'0 0.2
2015-Mar-30 06:17N 59°02' E 010°47'9 0.6
2015-Mar-29 15:30N 59°01' E 010°30'1313.8
2015-Mar-29 14:34N 59°00' E 010°55'7 4.9
2015-Mar-29 13:12N 58°56' E 011°05'1115.4
2015-Mar-29 12:30N 59°02' E 010°47'9 2.6
2015-Mar-29 09:11N 59°00' E 010°31'914.7
2015-Mar-29 08:34N 59°02' E 010°49'4 2.1
2015-Mar-29 06:33N 59°00' E 010°56'15 1.0
2015-Mar-28 16:29N 59°01' E 010°28'1515.8
2015-Mar-28 15:33N 59°00' E 010°56'6 4.5
2015-Mar-28 14:10N 58°56' E 011°05'915.8
2015-Mar-28 13:33N 59°01' E 010°50'10 3.0
2015-Mar-28 10:10N 59°01' E 010°30'1015.6
2015-Mar-28 09:34N 59°01' E 010°49'1212.1
2015-Mar-28 08:33N 58°56' E 011°10'9 9.0
2015-Mar-28 07:34N 59°00' E 010°55'1717.0
2015-Mar-28 06:34N 59°01' E 010°22'6 0.5
2015-Mar-27 17:15N 59°06' E 010°14'1012.5
2015-Mar-27 16:29N 59°01' E 010°30'1414.6
2015-Mar-27 15:33N 59°00' E 010°56'6 4.6
2015-Mar-27 14:10N 58°56' E 011°06'1015.6
2015-Mar-27 13:34N 59°01' E 010°50'10 2.9
2015-Mar-27 10:09N 59°01' E 010°31'915.3
2015-Mar-27 09:33N 59°02' E 010°48'12 8.3
2015-Mar-27 08:05N 58°56' E 011°09'1015.1
2015-Mar-27 07:24N 59°01' E 010°51'11 0.7
2015-Mar-26 16:27N 59°01' E 010°31'1315.1
2015-Mar-26 15:33N 59°00' E 010°56'6 4.6
2015-Mar-26 14:16N 58°56' E 011°05'1116.2
2015-Mar-26 13:33N 59°02' E 010°46'9 2.7
2015-Mar-26 10:12N 59°01' E 010°28'1015.8
2015-Mar-26 09:34N 59°02' E 010°47'13 9.3
2015-Mar-26 08:10N 58°56' E 011°09'1114.6
2015-Mar-26 07:26N 59°01' E 010°51'1815.8
2015-Mar-26 06:17N 59°02' E 010°16'8 0.5
2015-Mar-25 16:17N 59°01' E 010°30'1317.2
2015-Mar-25 15:33N 59°00' E 010°55'7 5.4
2015-Mar-25 14:15N 58°56' E 011°06'1116.2
2015-Mar-25 13:33N 59°02' E 010°46'10 2.8
2015-Mar-25 10:11N 59°01' E 010°28'1016.6
2015-Mar-25 09:33N 59°02' E 010°48'3 1.6
2015-Mar-25 07:33N 59°01' E 010°54'12 0.8
2015-Mar-24 16:24N 59°01' E 010°31'1315.9
2015-Mar-24 15:33N 59°00' E 010°57'5 3.5
2015-Mar-24 14:09N 58°57' E 011°04'1016.3
2015-Mar-24 13:32N 59°02' E 010°47'8 2.4
2015-Mar-24 10:09N 59°00' E 010°31'914.9
2015-Mar-24 09:33N 59°02' E 010°48'12 8.4
2015-Mar-24 08:06N 58°56' E 011°09'814.5
2015-Mar-24 07:34N 59°00' E 010°57'1716.4
2015-Mar-24 06:32N 59°01' E 010°24'4 0.3
2015-Mar-23 16:31N 59°01' E 010°33'1313.4
2015-Mar-23 15:34N 59°00' E 010°58'5 4.2
2015-Mar-23 14:15N 58°56' E 011°05'1115.8
2015-Mar-23 13:34N 59°02' E 010°47'9 2.6
2015-Mar-23 10:16N 59°00' E 010°30'913.3
2015-Mar-23 09:33N 59°02' E 010°48'2 0.9
2015-Mar-23 07:26N 59°01' E 010°52'12 0.8
2015-Mar-22 16:33N 59°01' E 010°28'1514.7
2015-Mar-22 15:33N 59°00' E 010°56'6 4.4
2015-Mar-22 14:11N 58°56' E 011°06'1115.5
2015-Mar-22 13:29N 59°02' E 010°47'10 3.1
2015-Mar-22 10:20N 59°01' E 010°28'1114.9
2015-Mar-22 09:34N 59°01' E 010°50'2 0.7
2015-Mar-22 07:16N 59°02' E 010°47'  

Dump ship's entire track history